createdAt,value
2022-11-20T00:00:16.337Z,100607.75
2022-11-20T00:02:42.648Z,100617.16
2022-11-20T00:05:09.241Z,100613.94
2022-11-20T00:07:35.625Z,100611.88
2022-11-20T00:10:02.785Z,100619.75
2022-11-20T00:12:29.186Z,100614.94
2022-11-20T00:14:55.478Z,100612.28
2022-11-20T00:17:21.775Z,100603.06
2022-11-20T00:19:48.192Z,100609.03
2022-11-20T00:22:15.005Z,100608.44
2022-11-20T00:24:43.172Z,100617.63
2022-11-20T00:27:09.785Z,100616.38
2022-11-20T00:29:36.133Z,100609.97
2022-11-20T00:32:02.530Z,100621.38
2022-11-20T00:34:28.811Z,100612.03
2022-11-20T00:36:55.125Z,100612.75
2022-11-20T00:39:21.775Z,100602.69
2022-11-20T00:41:48.300Z,100603.94
2022-11-20T00:44:14.617Z,100598.88
2022-11-20T00:46:41.030Z,100597.16
2022-11-20T00:49:07.357Z,100593.72
2022-11-20T00:51:33.727Z,100597.81
2022-11-20T00:54:01.060Z,100592.13
2022-11-20T00:56:27.689Z,100590.91
2022-11-20T00:58:54.022Z,100598.63
2022-11-20T01:01:21.750Z,100598.94
2022-11-20T01:03:49.183Z,100609.91
2022-11-20T01:06:17.587Z,100605.91
2022-11-20T01:08:44.757Z,100611.56
2022-11-20T01:11:18.662Z,100609.66
2022-11-20T01:13:45.970Z,100615.78
2022-11-20T01:16:13.931Z,100607.22
2022-11-20T01:18:41.427Z,100602.84
2022-11-20T01:21:09.254Z,100606.50
2022-11-20T01:23:36.951Z,100610.41
2022-11-20T01:26:05.260Z,100607.88
2022-11-20T01:28:31.805Z,100605.59
2022-11-20T01:30:58.839Z,100607.97
2022-11-20T01:33:25.238Z,100602.31
2022-11-20T01:35:51.634Z,100603.59
2022-11-20T01:38:18.003Z,100599.69
2022-11-20T01:40:44.391Z,100601.94
2022-11-20T01:43:21.553Z,100594.03
2022-11-20T01:45:53.899Z,100590.13
2022-11-20T01:48:22.095Z,100588.16
2022-11-20T01:50:49.001Z,100590.91
2022-11-20T01:53:19.131Z,100585.84
2022-11-20T01:55:53.935Z,100573.97
2022-11-20T01:58:22.826Z,100565.72
2022-11-20T02:00:49.408Z,100563.34
2022-11-20T02:03:17.331Z,100567.63
2022-11-20T02:06:10.171Z,100570.78
2022-11-20T02:08:37.350Z,100566.88
2022-11-20T02:11:03.859Z,100556.41
2022-11-20T02:13:45.543Z,100555.13
2022-11-20T02:16:17.835Z,100553.13
2022-11-20T02:18:45.250Z,100559.72
2022-11-20T02:21:17.898Z,100569.69
2022-11-20T02:23:53.316Z,100572.06
2022-11-20T02:26:21.725Z,100574.19
2022-11-20T02:28:48.178Z,100572.94
2022-11-20T02:31:14.495Z,100571.63
2022-11-20T02:33:40.841Z,100571.31
2022-11-20T02:36:10.226Z,100576.69
2022-11-20T02:38:36.563Z,100565.13
2022-11-20T02:41:02.840Z,100568.66
2022-11-20T02:43:29.149Z,100558.44
2022-11-20T02:45:55.509Z,100552.88
2022-11-20T02:48:23.679Z,100547.81
2022-11-20T02:50:51.510Z,100552.72
2022-11-20T02:53:17.906Z,100549.19
2022-11-20T02:55:46.218Z,100547.81
2022-11-20T02:58:12.538Z,100549.03
2022-11-20T03:00:38.941Z,100555.56
2022-11-20T03:03:05.261Z,100552.09
2022-11-20T03:05:31.601Z,100553.84
2022-11-20T03:07:58.017Z,100543.47
2022-11-20T03:10:24.321Z,100540.16
2022-11-20T03:12:55.491Z,100543.69
2022-11-20T03:15:22.557Z,100542.22
2022-11-20T03:17:49.167Z,100547.28
2022-11-20T03:20:15.639Z,100544.75
2022-11-20T03:22:41.974Z,100545.34
2022-11-20T03:25:08.378Z,100537.72
2022-11-20T03:27:35.406Z,100524.09
2022-11-20T03:30:02.017Z,100530.13
2022-11-20T03:32:28.296Z,100540.25
2022-11-20T03:34:54.593Z,100533.72
2022-11-20T03:37:20.885Z,100535.56
2022-11-20T03:39:47.195Z,100535.34
2022-11-20T03:42:32.463Z,100530.44
2022-11-20T03:44:58.735Z,100533.19
2022-11-20T03:47:25.024Z,100541.75
2022-11-20T03:49:51.382Z,100530.03
2022-11-20T03:52:17.646Z,100525.53
2022-11-20T03:54:43.915Z,100524.84
2022-11-20T03:57:10.284Z,100522.16
2022-11-20T03:59:36.629Z,100519.88
2022-11-20T04:02:02.986Z,100518.50
2022-11-20T04:04:29.337Z,100515.13
2022-11-20T04:06:55.639Z,100513.75
2022-11-20T04:09:22.048Z,100510.06
2022-11-20T04:11:48.566Z,100513.50
2022-11-20T04:14:15.851Z,100515.53
2022-11-20T04:16:42.234Z,100512.34
2022-11-20T04:19:12.789Z,100511.88
2022-11-20T04:21:39.126Z,100503.03
2022-11-20T04:24:05.601Z,100507.31
2022-11-20T04:26:32.374Z,100507.16
2022-11-20T04:28:59.305Z,100504.31
2022-11-20T04:31:27.235Z,100503.25
2022-11-20T04:33:53.779Z,100513.16
2022-11-20T04:36:24.529Z,100513.16
2022-11-20T04:39:00.255Z,100511.53
2022-11-20T04:41:27.915Z,100512.50
2022-11-20T04:43:59.943Z,100501.13
2022-11-20T04:46:27.212Z,100505.72
2022-11-20T04:48:53.659Z,100503.34
2022-11-20T04:51:20.059Z,100508.72
2022-11-20T04:53:46.423Z,100507.72
2022-11-20T04:56:13.366Z,100515.97
2022-11-20T04:58:40.330Z,100519.88
2022-11-20T05:01:11.108Z,100522.50
2022-11-20T05:03:42.179Z,100525.63
2022-11-20T05:06:09.716Z,100526.00
2022-11-20T05:08:36.106Z,100519.38
2022-11-20T05:11:03.661Z,100531.13
2022-11-20T05:13:30.091Z,100528.84
2022-11-20T05:15:56.682Z,100527.41
2022-11-20T05:18:23.129Z,100520.59
2022-11-20T05:20:55.513Z,100520.28
2022-11-20T05:23:21.854Z,100522.25
2022-11-20T05:25:48.477Z,100522.09
2022-11-20T05:28:15.028Z,100523.88
2022-11-20T05:30:41.300Z,100516.38
2022-11-20T05:33:08.543Z,100521.94
2022-11-20T05:35:34.867Z,100516.59
2022-11-20T05:38:01.135Z,100522.78
2022-11-20T05:40:27.490Z,100523.56
2022-11-20T05:42:53.862Z,100532.00
2022-11-20T05:45:20.277Z,100527.72
2022-11-20T05:47:46.630Z,100525.25
2022-11-20T05:50:13.194Z,100519.97
2022-11-20T05:52:39.529Z,100521.03
2022-11-20T05:55:06.233Z,100523.78
2022-11-20T05:57:32.540Z,100518.81
2022-11-20T05:59:58.915Z,100514.47
2022-11-20T06:02:25.493Z,100515.69
2022-11-20T06:04:51.970Z,100516.06
2022-11-20T06:07:18.305Z,100523.25
2022-11-20T06:09:44.762Z,100520.19
2022-11-20T06:12:11.154Z,100524.38
2022-11-20T06:14:37.485Z,100514.53
2022-11-20T06:17:03.783Z,100521.03
2022-11-20T06:19:30.281Z,100506.63
2022-11-20T06:21:56.669Z,100518.19
2022-11-20T06:24:23.691Z,100510.53
2022-11-20T06:26:50.102Z,100510.84
2022-11-20T06:29:16.438Z,100509.63
2022-11-20T06:31:43.478Z,100510.84
2022-11-20T06:34:09.839Z,100515.72
2022-11-20T06:36:36.590Z,100514.06
2022-11-20T06:39:04.489Z,100517.09
2022-11-20T06:41:30.933Z,100521.78
2022-11-20T06:43:57.341Z,100522.31
2022-11-20T06:46:23.688Z,100518.97
2022-11-20T06:48:50.351Z,100531.03
2022-11-20T06:51:16.979Z,100533.47
2022-11-20T06:53:43.336Z,100539.38
2022-11-20T06:56:09.842Z,100531.34
2022-11-20T06:58:37.037Z,100529.66
2022-11-20T07:01:05.240Z,100524.31
2022-11-20T07:03:31.750Z,100538.69
2022-11-20T07:05:58.834Z,100542.88
2022-11-20T07:08:25.545Z,100544.81
2022-11-20T07:10:51.905Z,100544.00
2022-11-20T07:13:18.203Z,100542.44
2022-11-20T07:15:44.609Z,100544.66
2022-11-20T07:18:11.314Z,100549.22
2022-11-20T07:20:37.621Z,100551.19
2022-11-20T07:23:04.024Z,100558.34
2022-11-20T07:25:31.452Z,100557.78
2022-11-20T07:27:58.545Z,100554.78
2022-11-20T07:30:24.860Z,100560.13
2022-11-20T07:32:54.907Z,100554.00
2022-11-20T07:35:21.174Z,100557.16
2022-11-20T07:37:48.220Z,100555.84
2022-11-20T07:40:14.690Z,100557.66
2022-11-20T07:42:48.265Z,100569.03
2022-11-20T07:45:14.680Z,100555.84
2022-11-20T07:47:41.051Z,100556.28
2022-11-20T07:50:08.431Z,100554.94
2022-11-20T07:52:34.783Z,100555.69
2022-11-20T07:55:01.381Z,100548.97
2022-11-20T07:57:28.602Z,100553.69
2022-11-20T07:59:55.142Z,100555.41
2022-11-20T08:02:21.455Z,100562.31
2022-11-20T08:04:47.778Z,100554.78
2022-11-20T08:07:14.309Z,100553.28
2022-11-20T08:09:40.687Z,100557.91
2022-11-20T08:12:25.833Z,100555.50
2022-11-20T08:14:52.126Z,100551.06
2022-11-20T08:17:19.692Z,100545.75
2022-11-20T08:19:46.007Z,100549.28
2022-11-20T08:22:12.428Z,100542.13
2022-11-20T08:24:38.720Z,100550.72
2022-11-20T08:27:05.095Z,100545.91
2022-11-20T08:29:31.407Z,100548.59
2022-11-20T08:31:57.793Z,100556.00
2022-11-20T08:34:24.157Z,100553.97
2022-11-20T08:36:50.423Z,100557.47
2022-11-20T08:39:16.900Z,100554.69
2022-11-20T08:41:43.340Z,100554.13
2022-11-20T08:44:09.858Z,100558.47
2022-11-20T08:46:38.222Z,100551.78
2022-11-20T08:49:11.613Z,100552.47
2022-11-20T08:51:38.486Z,100554.25
2022-11-20T08:54:06.795Z,100554.72
2022-11-20T08:56:33.317Z,100557.06
2022-11-20T08:59:20.512Z,100554.78
2022-11-20T09:01:49.133Z,100550.72
2022-11-20T09:04:15.570Z,100554.81
2022-11-20T09:06:41.955Z,100556.00
2022-11-20T09:09:08.658Z,100564.44
2022-11-20T09:11:36.435Z,100564.28
2022-11-20T09:14:03.745Z,100557.09
2022-11-20T09:16:30.431Z,100544.78
2022-11-20T09:19:20.276Z,100534.91
2022-11-20T09:21:42.990Z,100538.38
2022-11-20T09:24:09.429Z,100535.81
2022-11-20T09:26:35.705Z,100536.19
2022-11-20T09:29:02.070Z,100540.06
2022-11-20T09:31:28.391Z,100533.00
2022-11-20T09:33:54.804Z,100524.25
2022-11-20T09:36:21.200Z,100527.31
2022-11-20T09:38:47.540Z,100527.50
2022-11-20T09:41:32.622Z,100483.50
2022-11-20T09:43:58.917Z,100530.06
2022-11-20T09:46:43.342Z,100533.09
2022-11-20T09:49:21.627Z,100534.31
2022-11-20T09:51:57.827Z,100521.38
2022-11-20T09:54:28.690Z,100531.25
2022-11-20T09:57:03.783Z,100529.38
2022-11-20T09:59:34.639Z,100531.69
2022-11-20T10:02:01.948Z,100539.09
2022-11-20T10:04:30.513Z,100529.69
2022-11-20T10:07:32.260Z,100535.25
2022-11-20T10:09:53.404Z,100532.75
2022-11-20T10:12:44.604Z,100527.91
2022-11-20T10:15:25.651Z,100534.28
2022-11-20T10:18:04.195Z,100529.75
2022-11-20T10:20:39.673Z,100519.66
2022-11-20T10:23:12.141Z,100514.13
2022-11-20T10:25:40.664Z,100512.84
2022-11-20T10:28:25.842Z,100503.63
2022-11-20T10:31:01.891Z,100487.50
2022-11-20T10:33:49.999Z,100480.81
2022-11-20T10:36:23.962Z,100478.25
2022-11-20T10:38:57.769Z,100470.53
2022-11-20T10:41:26.937Z,100473.38
2022-11-20T10:43:58.187Z,100465.00
2022-11-20T10:46:25.830Z,100469.00
2022-11-20T10:48:52.491Z,100472.03
2022-11-20T10:51:18.845Z,100463.81
2022-11-20T10:53:45.198Z,100461.63
2022-11-20T10:56:31.970Z,100459.47
2022-11-20T10:59:01.778Z,100459.97
2022-11-20T11:01:28.111Z,100451.88
2022-11-20T11:03:55.957Z,100446.69
2022-11-20T11:06:30.061Z,100440.66
2022-11-20T11:08:59.462Z,100436.13
2022-11-20T11:11:30.908Z,100430.75
2022-11-20T11:14:07.398Z,100421.34
2022-11-20T11:16:33.788Z,100424.72
2022-11-20T11:19:07.787Z,100415.28
2022-11-20T11:21:34.143Z,100415.66
2022-11-20T11:24:19.708Z,100407.41
2022-11-20T11:26:53.795Z,100410.44
2022-11-20T11:29:20.726Z,100409.56
2022-11-20T11:31:47.504Z,100398.97
2022-11-20T11:34:15.019Z,100401.97
2022-11-20T11:36:42.131Z,100387.72
2022-11-20T11:39:21.122Z,100390.56
2022-11-20T11:41:48.608Z,100385.38
2022-11-20T11:44:39.447Z,100371.59
2022-11-20T11:47:09.487Z,100384.38
2022-11-20T11:49:36.106Z,100385.72
2022-11-20T11:52:02.535Z,100379.34
2022-11-20T11:54:38.018Z,100369.59
2022-11-20T11:57:08.814Z,100366.94
2022-11-20T11:59:44.329Z,100368.28
2022-11-20T12:02:30.917Z,100359.91
2022-11-20T12:05:02.914Z,100361.91
2022-11-20T12:07:48.018Z,100349.31
2022-11-20T12:10:17.544Z,100346.47
2022-11-20T12:12:49.285Z,100343.44
2022-11-20T12:15:20.630Z,100334.03
2022-11-20T12:17:46.899Z,100335.88
2022-11-20T12:20:14.401Z,100333.69
2022-11-20T12:22:53.744Z,100329.31
2022-11-20T12:25:22.879Z,100325.28
2022-11-20T12:27:52.294Z,100330.31
2022-11-20T12:30:19.500Z,100322.09
2022-11-20T12:32:45.924Z,100318.22
2022-11-20T12:35:27.663Z,100315.34
2022-11-20T12:37:58.567Z,100304.41
2022-11-20T12:40:32.784Z,100307.41
2022-11-20T12:43:25.458Z,100310.41
2022-11-20T12:46:09.962Z,100304.69
2022-11-20T12:48:36.279Z,100300.84
2022-11-20T12:51:15.475Z,100297.66
2022-11-20T12:53:42.090Z,100288.84
2022-11-20T12:56:20.573Z,100285.41
2022-11-20T12:58:50.010Z,100274.16
2022-11-20T13:01:41.811Z,100283.47
2022-11-20T13:04:14.367Z,100269.16
2022-11-20T13:06:42.493Z,100264.13
2022-11-20T13:09:14.206Z,100261.66
2022-11-20T13:11:52.834Z,100259.97
2022-11-20T13:14:19.174Z,100250.22
2022-11-20T13:16:54.679Z,100249.03
2022-11-20T13:19:21.517Z,100237.94
2022-11-20T13:21:51.300Z,100232.53
2022-11-20T13:24:21.037Z,100232.69
2022-11-20T13:26:48.015Z,100230.28
2022-11-20T13:29:18.629Z,100218.84
2022-11-20T13:31:46.295Z,100208.78
2022-11-20T13:34:14.450Z,100218.69
2022-11-20T13:36:50.097Z,100213.38
2022-11-20T13:39:25.083Z,100208.06
2022-11-20T13:41:58.717Z,100208.88
2022-11-20T13:44:25.404Z,100205.53
2022-11-20T13:46:51.978Z,100194.78
2022-11-20T13:49:20.667Z,100191.59
2022-11-20T13:51:48.477Z,100186.22
2022-11-20T13:54:33.563Z,100186.06
2022-11-20T13:57:10.011Z,100180.31
2022-11-20T13:59:55.554Z,100173.28
2022-11-20T14:02:23.025Z,100173.13
2022-11-20T14:04:51.253Z,100163.59
2022-11-20T14:07:19.179Z,100156.53
2022-11-20T14:09:53.061Z,100161.91
2022-11-20T14:12:21.194Z,100155.00
2022-11-20T14:14:52.223Z,100156.31
2022-11-20T14:17:23.563Z,100155.44
2022-11-20T14:19:51.485Z,100145.72
2022-11-20T14:22:19.352Z,100137.13
2022-11-20T14:24:46.046Z,100132.28
2022-11-20T14:27:13.906Z,100123.88
2022-11-20T14:29:41.580Z,100121.19
2022-11-20T14:32:09.710Z,100120.81
2022-11-20T14:34:41.449Z,100116.66
2022-11-20T14:37:16.584Z,100114.94
2022-11-20T14:39:48.627Z,100107.38
2022-11-20T14:42:25.050Z,100108.41
2022-11-20T14:44:52.198Z,100103.66
2022-11-20T14:47:20.242Z,100099.31
2022-11-20T14:49:46.738Z,100094.56
2022-11-20T14:52:16.176Z,100091.88
2022-11-20T14:54:46.845Z,100086.69
2022-11-20T14:57:29.676Z,100090.72
2022-11-20T15:00:11.088Z,100083.81
2022-11-20T15:02:44.863Z,100081.53
2022-11-20T15:05:11.470Z,100075.81
2022-11-20T15:07:41.092Z,100076.50
2022-11-20T15:10:08.877Z,100075.28
2022-11-20T15:12:36.826Z,100078.84
2022-11-20T15:15:04.211Z,100072.78
2022-11-20T15:17:31.681Z,100073.63
2022-11-20T15:19:58.043Z,100081.13
2022-11-20T15:22:24.406Z,100070.09
2022-11-20T15:24:50.729Z,100066.38
2022-11-20T15:27:17.315Z,100062.22
2022-11-20T15:29:44.211Z,100056.06
2022-11-20T15:32:13.593Z,100054.41
2022-11-20T15:34:42.692Z,100057.69
2022-11-20T15:37:09.005Z,100043.94
2022-11-20T15:39:35.349Z,100040.88
2022-11-20T15:42:01.751Z,100037.47
2022-11-20T15:44:28.174Z,100033.31
2022-11-20T15:46:54.494Z,100016.59
2022-11-20T15:49:22.647Z,100014.94
2022-11-20T15:51:49.958Z,100005.22
2022-11-20T15:54:18.983Z,100003.81
2022-11-20T15:56:45.318Z,100004.31
2022-11-20T15:59:11.686Z,99987.34
2022-11-20T16:01:38.101Z,99985.94
2022-11-20T16:04:06.302Z,99981.41
2022-11-20T16:06:32.746Z,99979.34
2022-11-20T16:08:59.131Z,99973.78
2022-11-20T16:11:26.472Z,99979.84
2022-11-20T16:14:11.586Z,99970.75
2022-11-20T16:16:38.663Z,99964.72
2022-11-20T16:19:05.155Z,99961.00
2022-11-20T16:21:32.259Z,99962.69
2022-11-20T16:24:03.699Z,99957.47
2022-11-20T16:26:30.761Z,99961.88
2022-11-20T16:28:57.156Z,99961.88
2022-11-20T16:31:23.561Z,99963.03
2022-11-20T16:33:50.695Z,99963.72
2022-11-20T16:36:17.191Z,99959.72
2022-11-20T16:38:43.655Z,99954.34
2022-11-20T16:41:16.053Z,99955.63
2022-11-20T16:43:49.858Z,99959.34
2022-11-20T16:46:16.477Z,99945.53
2022-11-20T16:48:42.806Z,99940.34
2022-11-20T16:51:11.041Z,99931.44
2022-11-20T16:53:38.222Z,99933.28
2022-11-20T16:56:17.008Z,99921.34
2022-11-20T16:58:46.819Z,99925.88
2022-11-20T17:01:14.277Z,99911.94
2022-11-20T17:03:41.609Z,99912.97
2022-11-20T17:06:12.367Z,99912.78
2022-11-20T17:08:38.705Z,99901.00
2022-11-20T17:11:05.948Z,99899.81
2022-11-20T17:13:35.934Z,99902.22
2022-11-20T17:16:06.112Z,99888.59
2022-11-20T17:18:32.512Z,99890.06
2022-11-20T17:21:00.477Z,99885.34
2022-11-20T17:23:36.497Z,99872.94
2022-11-20T17:26:04.643Z,99863.19
2022-11-20T17:28:31.864Z,99859.84
2022-11-20T17:31:08.919Z,99850.47
2022-11-20T17:33:36.439Z,99833.91
2022-11-20T17:36:05.446Z,99841.47
2022-11-20T17:38:31.887Z,99840.94
2022-11-20T17:41:05.422Z,99836.22
2022-11-20T17:43:35.670Z,99829.81
2022-11-20T17:46:06.651Z,99824.44
2022-11-20T17:48:36.134Z,99821.94
2022-11-20T17:51:03.424Z,99823.59
2022-11-20T17:53:32.894Z,99809.75
2022-11-20T17:56:17.952Z,99806.53
2022-11-20T17:58:44.310Z,99793.91
2022-11-20T18:01:11.207Z,99791.41
2022-11-20T18:03:37.935Z,99784.81
2022-11-20T18:06:08.302Z,99771.75
2022-11-20T18:08:34.684Z,99765.38
2022-11-20T18:11:01.201Z,99778.16
2022-11-20T18:13:48.074Z,99778.16
2022-11-20T18:16:14.569Z,99774.25
2022-11-20T18:18:41.531Z,99763.97
2022-11-20T18:21:08.169Z,99768.69
2022-11-20T18:23:34.607Z,99756.28
2022-11-20T18:26:00.954Z,99766.56
2022-11-20T18:28:27.351Z,99754.69
2022-11-20T18:30:53.829Z,99756.91
2022-11-20T18:33:25.475Z,99759.34
2022-11-20T18:35:54.687Z,99763.69
2022-11-20T18:38:20.960Z,99762.88
2022-11-20T18:40:47.769Z,99765.38
2022-11-20T18:43:32.952Z,99761.66
2022-11-20T18:46:03.287Z,99758.97
2022-11-20T18:48:32.730Z,99750.88
2022-11-20T18:51:08.608Z,99751.25
2022-11-20T18:53:35.918Z,99750.88
2022-11-20T18:56:05.981Z,99742.44
2022-11-20T18:58:32.359Z,99744.75
2022-11-20T19:01:06.341Z,99741.03
2022-11-20T19:03:32.753Z,99737.69
2022-11-20T19:05:59.147Z,99733.63
2022-11-20T19:08:25.435Z,99732.06
2022-11-20T19:10:51.771Z,99734.38
2022-11-20T19:13:18.110Z,99724.88
2022-11-20T19:15:44.520Z,99721.81
2022-11-20T19:18:11.051Z,99725.78
2022-11-20T19:20:37.400Z,99721.06
2022-11-20T19:23:03.726Z,99721.69
2022-11-20T19:25:35.181Z,99716.94
2022-11-20T19:28:04.300Z,99716.09
2022-11-20T19:30:30.766Z,99707.84
2022-11-20T19:32:58.020Z,99713.03
2022-11-20T19:35:24.547Z,99707.91
2022-11-20T19:37:51.454Z,99712.47
2022-11-20T19:40:17.902Z,99708.94
2022-11-20T19:42:44.255Z,99705.84
2022-11-20T19:45:10.726Z,99708.75
2022-11-20T19:48:07.243Z,99709.59
2022-11-20T19:50:23.881Z,99708.53
2022-11-20T19:52:53.241Z,99712.69
2022-11-20T19:55:23.721Z,99703.44
2022-11-20T19:57:50.012Z,99703.00
2022-11-20T20:00:24.543Z,99703.47
2022-11-20T20:02:55.005Z,99710.31
2022-11-20T20:05:21.495Z,99704.56
2022-11-20T20:07:48.097Z,99703.13
2022-11-20T20:10:14.766Z,99705.63
2022-11-20T20:12:41.083Z,99714.34
2022-11-20T20:15:07.562Z,99701.94
2022-11-20T20:17:34.173Z,99701.75
2022-11-20T20:20:00.583Z,99698.22
2022-11-20T20:22:26.907Z,99706.09
2022-11-20T20:24:53.346Z,99705.25
2022-11-20T20:27:19.919Z,99711.09
2022-11-20T20:29:46.406Z,99713.59
2022-11-20T20:32:12.839Z,99705.13
2022-11-20T20:34:39.202Z,99715.69
2022-11-20T20:37:05.531Z,99709.91
2022-11-20T20:39:32.002Z,99718.63
2022-11-20T20:41:58.415Z,99716.13
2022-11-20T20:44:43.602Z,99722.34
2022-11-20T20:47:10.044Z,99718.81
2022-11-20T20:49:37.743Z,99716.97
2022-11-20T20:52:04.188Z,99720.66
2022-11-20T20:54:34.368Z,99720.66
2022-11-20T20:57:01.147Z,99715.28
2022-11-20T20:59:27.546Z,99709.47
2022-11-20T21:01:53.968Z,99719.84
2022-11-20T21:04:20.458Z,99709.91
2022-11-20T21:06:46.867Z,99717.34
2022-11-20T21:09:13.216Z,99718.63
2022-11-20T21:11:40.813Z,99717.16
2022-11-20T21:14:07.275Z,99717.97
2022-11-20T21:16:41.062Z,99729.78
2022-11-20T21:19:07.852Z,99732.66
2022-11-20T21:21:53.019Z,99748.81
2022-11-20T21:24:19.411Z,99711.34
2022-11-20T21:26:45.969Z,99745.06
2022-11-20T21:29:12.744Z,99742.75
2022-11-20T21:31:39.377Z,99743.50
2022-11-20T21:34:05.814Z,99735.63
2022-11-20T21:36:32.333Z,99743.50
2022-11-20T21:38:59.574Z,99751.16
2022-11-20T21:41:27.067Z,99752.56
2022-11-20T21:44:24.038Z,99749.22
2022-11-20T21:46:42.034Z,99751.94
2022-11-20T21:49:08.999Z,99757.69
2022-11-20T21:51:35.456Z,99742.38
2022-11-20T21:54:01.899Z,99746.50
2022-11-20T21:56:28.260Z,99741.09
2022-11-20T21:58:57.798Z,99743.38
2022-11-20T22:01:29.320Z,99746.50
2022-11-20T22:03:57.831Z,99758.91
2022-11-20T22:06:25.733Z,99751.47
2022-11-20T22:08:55.020Z,99748.53
2022-11-20T22:11:21.901Z,99744.81
2022-11-20T22:14:16.371Z,99750.19
2022-11-20T22:16:43.193Z,99747.75
2022-11-20T22:19:34.451Z,99752.78
2022-11-20T22:22:09.593Z,99756.47
2022-11-20T22:24:39.863Z,99761.84
2022-11-20T22:27:06.432Z,99772.19
2022-11-20T22:29:34.087Z,99763.25
2022-11-20T22:32:00.660Z,99754.81
2022-11-20T22:34:29.332Z,99754.44
2022-11-20T22:36:56.679Z,99766.41
2022-11-20T22:39:25.861Z,99772.63
2022-11-20T22:41:53.601Z,99776.34
2022-11-20T22:44:20.385Z,99777.94
2022-11-20T22:46:47.281Z,99786.66
2022-11-20T22:49:16.424Z,99786.03
2022-11-20T22:51:42.999Z,99782.09
2022-11-20T22:54:13.348Z,99799.09
2022-11-20T22:56:40.288Z,99799.47
2022-11-20T22:59:12.768Z,99797.63
2022-11-20T23:01:39.627Z,99803.56
2022-11-20T23:04:23.286Z,99808.50
2022-11-20T23:06:57.501Z,99813.63
2022-11-20T23:09:41.168Z,99808.16
2022-11-20T23:12:08.420Z,99810.94
2022-11-20T23:14:35.018Z,99817.50
2022-11-20T23:17:18.403Z,99807.97
2022-11-20T23:19:44.984Z,99820.38
2022-11-20T23:22:11.493Z,99806.94
2022-11-20T23:27:14.434Z,99831.56
2022-11-20T23:29:40.970Z,99824.97
2022-11-20T23:32:07.239Z,99822.44
2022-11-20T23:34:33.634Z,99828.59
2022-11-20T23:37:01.031Z,99822.44
2022-11-20T23:39:27.458Z,99829.69
2022-11-20T23:41:53.805Z,99824.06
2022-11-20T23:44:20.200Z,99826.09
2022-11-20T23:46:46.546Z,99819.09
2022-11-20T23:49:13.267Z,99823.84
2022-11-20T23:51:39.707Z,99819.09
2022-11-20T23:54:06.065Z,99825.34
2022-11-20T23:56:32.415Z,99829.06
2022-11-20T23:58:58.803Z,99822.63
